Oshima Airport, Japan

3:49 PM JST on October 23, 2014 (GMT +0900)
Oshima | Change Station
CLOSE
Current Station
Airport
Location: Oshima Airport,
Elevation: 135 ft
Nearby Weather Stations

Elev 135 ft 34.78 °N, 139.36 °E | Updated 49 minutes ago

Mostly Cloudy
Mostly Cloudy
59 °F
Feels Like 59 °F
N
25
Wind Variable Wind from NE

Today
High -- | Low -- °F
--% Chance of Precip.
Yesterday
High -- | Low -- °F
Precip. -- in
5:54 AM 4:58 PM
Waning Crescent, 0% visible
Pressure 30.01 in
Visibility 6.2 miles
Clouds Few 800 ft
Mostly Cloudy 1700 ft
Mostly Cloudy 6000 ft
Dew Point 52 °F
Humidity 77%
Rainfall 0.00 in
Snow Depth Not available.
UV 1 out of 12
Pollen Not available.
Air Quality Not available.
Flu Activity Not available.
METAR RJTO 230600Z 04022KT 9999 FEW008 BKN017 BKN060 15/11 Q1016

More Conditions Fewer Conditions

Pressure 30.01 in
Visibility 6.2 miles
Clouds Few 800 ft
Mostly Cloudy 1700 ft
Mostly Cloudy 6000 ft
Dew Point 52 °F
Humidity 77%
Rainfall 0.00 in
Snow Depth Not available.
UV 1 out of 12
Pollen Not available.
Air Quality Not available.
Flu Activity Not available.
METAR RJTO 230600Z 04022KT 9999 FEW008 BKN017 BKN060 15/11 Q1016

More Conditions Fewer Conditions

10-Day Weather Forecast

Almanac

Astronomy

Oct. 23, 2014 Rise Set
Actual Time 5:54 AM JST 4:58 PM JST
Civil Twilight 5:28 AM JST 5:24 PM JST
Nautical Twilight 4:59 AM JST 5:53 PM JST
Astronomical Twilight 4:30 AM JST 6:23 PM JST
Moon 4:59 AM JST 4:36 PM JST
Length of Visible Light 11h 55m
Length of Day
11h 04m
Tomorrow will be 2m 1s shorter.
Waning Crescent, 0% of the Moon is Illuminated
Today
Waning Crescent
Oct 23
New
Oct 30
First Quarter
Nov 6
Full
Nov 14
Last Quarter

Yesterday's Extremes

Country Highs Country Lows

Community

WunderPhotos

Upload Photos

1,764,194 photos uploaded!

Nearby

Snow Depth

Not available.

Earthquake Activity

City Distance Mag. Time & Date
No recent earthquake activity has been reported nearby.
Minimum magnitude displayed is 2.5.

Coastal Water Temperatures

Place Temperature
No Stations Reporting

Nearby Weather Stations